sensor_id;sensor_type;location;lat;lon;timestamp;pressure;altitude;pressure_sealevel;temperature;humidity
64352;BME280;50680;52.626;-8.668;2023-03-14T00:01:26;99590.41;;;5.99;100.00
64352;BME280;50680;52.626;-8.668;2023-03-14T00:03:53;99595.84;;;5.94;100.00
64352;BME280;50680;52.626;-8.668;2023-03-14T00:06:20;99601.97;;;5.93;100.00
64352;BME280;50680;52.626;-8.668;2023-03-14T00:08:47;99609.13;;;5.90;100.00
64352;BME280;50680;52.626;-8.668;2023-03-14T00:11:16;99611.16;;;6.00;100.00
64352;BME280;50680;52.626;-8.668;2023-03-14T00:13:50;99623.44;;;6.13;100.00
64352;BME280;50680;52.626;-8.668;2023-03-14T00:16:17;99627.69;;;6.14;100.00
64352;BME280;50680;52.626;-8.668;2023-03-14T00:18:44;99644.34;;;6.11;100.00
64352;BME280;50680;52.626;-8.668;2023-03-14T00:21:11;99643.31;;;6.14;100.00
64352;BME280;50680;52.626;-8.668;2023-03-14T00:23:40;99646.00;;;6.12;100.00
64352;BME280;50680;52.626;-8.668;2023-03-14T00:26:13;99652.06;;;6.13;100.00
64352;BME280;50680;52.626;-8.668;2023-03-14T00:28:41;99654.25;;;6.05;100.00
64352;BME280;50680;52.626;-8.668;2023-03-14T00:31:10;99653.44;;;6.04;100.00
64352;BME280;50680;52.626;-8.668;2023-03-14T00:33:37;99656.13;;;6.02;100.00
64352;BME280;50680;52.626;-8.668;2023-03-14T00:36:06;99657.59;;;6.07;100.00
64352;BME280;50680;52.626;-8.668;2023-03-14T00:38:35;99665.16;;;5.95;100.00
64352;BME280;50680;52.626;-8.668;2023-03-14T00:41:11;99668.03;;;5.91;100.00
64352;BME280;50680;52.626;-8.668;2023-03-14T00:43:38;99670.22;;;5.82;100.00
64352;BME280;50680;52.626;-8.668;2023-03-14T00:46:05;99670.66;;;5.75;100.00
64352;BME280;50680;52.626;-8.668;2023-03-14T00:48:33;99669.34;;;5.68;100.00
64352;BME280;50680;52.626;-8.668;2023-03-14T00:51:01;99678.78;;;5.69;100.00
64352;BME280;50680;52.626;-8.668;2023-03-14T00:53:28;99682.66;;;5.61;100.00
64352;BME280;50680;52.626;-8.668;2023-03-14T00:55:55;99696.56;;;5.60;100.00
64352;BME280;50680;52.626;-8.668;2023-03-14T00:58:21;99689.72;;;5.59;100.00
64352;BME280;50680;52.626;-8.668;2023-03-14T01:00:48;99701.97;;;5.57;100.00
64352;BME280;50680;52.626;-8.668;2023-03-14T01:03:15;99710.75;;;5.55;100.00
64352;BME280;50680;52.626;-8.668;2023-03-14T01:05:42;99714.13;;;5.73;100.00
64352;BME280;50680;52.626;-8.668;2023-03-14T01:08:09;99714.84;;;5.91;100.00
64352;BME280;50680;52.626;-8.668;2023-03-14T01:10:40;99729.19;;;6.14;100.00
64352;BME280;50680;52.626;-8.668;2023-03-14T01:13:08;99733.81;;;6.09;100.00
64352;BME280;50680;52.626;-8.668;2023-03-14T01:15:36;99750.59;;;6.19;100.00
64352;BME280;50680;52.626;-8.668;2023-03-14T01:18:03;99756.53;;;6.21;100.00
64352;BME280;50680;52.626;-8.668;2023-03-14T01:20:30;99763.50;;;6.20;100.00
64352;BME280;50680;52.626;-8.668;2023-03-14T01:22:57;99776.13;;;5.96;100.00
64352;BME280;50680;52.626;-8.668;2023-03-14T01:25:24;99779.31;;;5.86;100.00
64352;BME280;50680;52.626;-8.668;2023-03-14T01:27:50;99781.47;;;5.77;100.00
64352;BME280;50680;52.626;-8.668;2023-03-14T01:30:17;99800.84;;;5.72;100.00
64352;BME280;50680;52.626;-8.668;2023-03-14T01:32:44;99812.34;;;5.68;100.00
64352;BME280;50680;52.626;-8.668;2023-03-14T01:35:11;99812.50;;;5.64;100.00
64352;BME280;50680;52.626;-8.668;2023-03-14T01:37:38;99812.44;;;5.66;100.00
64352;BME280;50680;52.626;-8.668;2023-03-14T01:40:05;99831.44;;;5.51;100.00
64352;BME280;50680;52.626;-8.668;2023-03-14T01:42:32;99833.31;;;5.64;100.00
64352;BME280;50680;52.626;-8.668;2023-03-14T01:45:01;99833.53;;;5.44;100.00
64352;BME280;50680;52.626;-8.668;2023-03-14T01:47:28;99848.72;;;5.52;100.00
64352;BME280;50680;52.626;-8.668;2023-03-14T01:50:07;99854.41;;;5.42;100.00
64352;BME280;50680;52.626;-8.668;2023-03-14T01:52:48;99861.38;;;5.42;100.00
64352;BME280;50680;52.626;-8.668;2023-03-14T01:55:23;99866.50;;;5.43;100.00
64352;BME280;50680;52.626;-8.668;2023-03-14T01:57:54;99875.28;;;5.23;100.00
64352;BME280;50680;52.626;-8.668;2023-03-14T02:00:23;99885.84;;;5.20;100.00
64352;BME280;50680;52.626;-8.668;2023-03-14T02:03:02;99911.13;;;5.17;100.00
64352;BME280;50680;52.626;-8.668;2023-03-14T02:05:34;99918.31;;;5.12;100.00
64352;BME280;50680;52.626;-8.668;2023-03-14T02:08:05;99909.69;;;5.11;100.00
64352;BME280;50680;52.626;-8.668;2023-03-14T02:10:38;99935.34;;;5.17;100.00
64352;BME280;50680;52.626;-8.668;2023-03-14T02:13:06;99928.16;;;5.22;100.00
64352;BME280;50680;52.626;-8.668;2023-03-14T02:15:33;99955.91;;;5.04;100.00
64352;BME280;50680;52.626;-8.668;2023-03-14T02:18:02;99951.53;;;5.05;100.00
64352;BME280;50680;52.626;-8.668;2023-03-14T02:22:59;99990.50;;;5.05;100.00
64352;BME280;50680;52.626;-8.668;2023-03-14T02:25:43;100006.69;;;4.93;100.00
64352;BME280;50680;52.626;-8.668;2023-03-14T02:28:12;100019.13;;;4.86;100.00
64352;BME280;50680;52.626;-8.668;2023-03-14T02:30:39;100040.53;;;4.91;100.00
64352;BME280;50680;52.626;-8.668;2023-03-14T02:33:09;100052.75;;;4.89;100.00
64352;BME280;50680;52.626;-8.668;2023-03-14T02:36:01;100058.38;;;4.99;100.00
64352;BME280;50680;52.626;-8.668;2023-03-14T02:38:33;100079.28;;;4.96;100.00
64352;BME280;50680;52.626;-8.668;2023-03-14T02:41:03;100090.88;;;4.88;100.00
64352;BME280;50680;52.626;-8.668;2023-03-14T02:43:30;100111.47;;;4.93;100.00
64352;BME280;50680;52.626;-8.668;2023-03-14T02:45:56;100144.28;;;4.75;100.00
64352;BME280;50680;52.626;-8.668;2023-03-14T02:48:29;100144.34;;;4.93;100.00
64352;BME280;50680;52.626;-8.668;2023-03-14T02:50:59;100128.28;;;4.84;100.00
64352;BME280;50680;52.626;-8.668;2023-03-14T02:53:29;100133.69;;;4.80;100.00
64352;BME280;50680;52.626;-8.668;2023-03-14T02:55:58;100158.25;;;4.73;100.00
64352;BME280;50680;52.626;-8.668;2023-03-14T02:58:25;100175.41;;;4.56;100.00
64352;BME280;50680;52.626;-8.668;2023-03-14T03:00:52;100172.59;;;4.61;100.00
64352;BME280;50680;52.626;-8.668;2023-03-14T03:03:19;100200.78;;;4.49;100.00
64352;BME280;50680;52.626;-8.668;2023-03-14T03:05:51;100202.94;;;4.60;100.00
64352;BME280;50680;52.626;-8.668;2023-03-14T03:08:19;100214.72;;;4.47;100.00
64352;BME280;50680;52.626;-8.668;2023-03-14T03:10:47;100219.53;;;4.56;100.00
64352;BME280;50680;52.626;-8.668;2023-03-14T03:13:14;100235.38;;;4.50;100.00
64352;BME280;50680;52.626;-8.668;2023-03-14T03:15:41;100251.38;;;4.39;100.00
64352;BME280;50680;52.626;-8.668;2023-03-14T03:18:08;100255.34;;;4.27;100.00
64352;BME280;50680;52.626;-8.668;2023-03-14T03:20:35;100250.69;;;4.13;100.00
64352;BME280;50680;52.626;-8.668;2023-03-14T03:23:02;100253.28;;;4.13;100.00
64352;BME280;50680;52.626;-8.668;2023-03-14T03:25:29;100260.22;;;4.13;100.00
64352;BME280;50680;52.626;-8.668;2023-03-14T03:27:56;100278.69;;;4.05;100.00
64352;BME280;50680;52.626;-8.668;2023-03-14T03:30:23;100292.72;;;4.00;100.00
64352;BME280;50680;52.626;-8.668;2023-03-14T03:32:50;100290.44;;;3.92;100.00
64352;BME280;50680;52.626;-8.668;2023-03-14T03:35:17;100282.78;;;3.89;100.00
64352;BME280;50680;52.626;-8.668;2023-03-14T03:37:44;100270.84;;;3.85;100.00
64352;BME280;50680;52.626;-8.668;2023-03-14T03:40:11;100261.78;;;3.73;100.00
64352;BME280;50680;52.626;-8.668;2023-03-14T03:42:37;100266.81;;;3.54;100.00
64352;BME280;50680;52.626;-8.668;2023-03-14T03:45:05;100256.66;;;3.48;100.00
64352;BME280;50680;52.626;-8.668;2023-03-14T03:47:32;100272.56;;;3.38;100.00
64352;BME280;50680;52.626;-8.668;2023-03-14T03:49:59;100290.03;;;3.33;100.00
64352;BME280;50680;52.626;-8.668;2023-03-14T03:52:25;100322.34;;;3.23;100.00
64352;BME280;50680;52.626;-8.668;2023-03-14T03:54:52;100346.63;;;3.20;100.00
64352;BME280;50680;52.626;-8.668;2023-03-14T03:57:19;100353.66;;;3.17;100.00
64352;BME280;50680;52.626;-8.668;2023-03-14T03:59:46;100376.97;;;3.17;100.00
64352;BME280;50680;52.626;-8.668;2023-03-14T04:02:13;100387.47;;;3.12;100.00
64352;BME280;50680;52.626;-8.668;2023-03-14T04:04:40;100388.22;;;3.16;100.00
64352;BME280;50680;52.626;-8.668;2023-03-14T04:07:07;100398.53;;;3.17;100.00
64352;BME280;50680;52.626;-8.668;2023-03-14T04:09:34;100388.31;;;3.13;100.00
64352;BME280;50680;52.626;-8.668;2023-03-14T04:12:00;100391.88;;;3.10;100.00
64352;BME280;50680;52.626;-8.668;2023-03-14T04:14:28;100399.56;;;3.13;100.00
64352;BME280;50680;52.626;-8.668;2023-03-14T04:16:55;100409.97;;;3.12;100.00
64352;BME280;50680;52.626;-8.668;2023-03-14T04:19:21;100420.59;;;3.03;100.00
64352;BME280;50680;52.626;-8.668;2023-03-14T04:21:48;100420.56;;;3.04;100.00
64352;BME280;50680;52.626;-8.668;2023-03-14T04:24:15;100426.34;;;3.12;100.00
64352;BME280;50680;52.626;-8.668;2023-03-14T04:26:42;100435.13;;;3.08;100.00
64352;BME280;50680;52.626;-8.668;2023-03-14T04:29:09;100440.63;;;2.97;100.00
64352;BME280;50680;52.626;-8.668;2023-03-14T04:31:38;100449.75;;;3.09;100.00
64352;BME280;50680;52.626;-8.668;2023-03-14T04:34:05;100451.22;;;3.16;100.00
64352;BME280;50680;52.626;-8.668;2023-03-14T04:36:32;100452.31;;;3.09;100.00
64352;BME280;50680;52.626;-8.668;2023-03-14T04:38:58;100458.56;;;3.04;100.00
64352;BME280;50680;52.626;-8.668;2023-03-14T04:41:25;100466.59;;;2.96;100.00
64352;BME280;50680;52.626;-8.668;2023-03-14T04:43:52;100483.25;;;2.87;100.00
64352;BME280;50680;52.626;-8.668;2023-03-14T04:46:19;100487.03;;;2.77;100.00
64352;BME280;50680;52.626;-8.668;2023-03-14T04:48:45;100505.28;;;2.72;100.00
64352;BME280;50680;52.626;-8.668;2023-03-14T04:51:12;100510.59;;;2.68;100.00
64352;BME280;50680;52.626;-8.668;2023-03-14T04:53:39;100486.25;;;2.45;100.00
64352;BME280;50680;52.626;-8.668;2023-03-14T04:56:07;100520.31;;;2.59;100.00
64352;BME280;50680;52.626;-8.668;2023-03-14T04:58:34;100528.25;;;2.55;100.00
64352;BME280;50680;52.626;-8.668;2023-03-14T05:01:04;100524.75;;;2.56;100.00
64352;BME280;50680;52.626;-8.668;2023-03-14T05:03:31;100530.41;;;2.39;100.00
64352;BME280;50680;52.626;-8.668;2023-03-14T05:05:58;100541.78;;;2.33;100.00
64352;BME280;50680;52.626;-8.668;2023-03-14T05:08:25;100538.50;;;2.26;100.00
64352;BME280;50680;52.626;-8.668;2023-03-14T05:10:53;100542.13;;;2.21;100.00
64352;BME280;50680;52.626;-8.668;2023-03-14T05:13:20;100551.97;;;2.08;100.00
64352;BME280;50680;52.626;-8.668;2023-03-14T05:15:47;100551.22;;;2.03;100.00
64352;BME280;50680;52.626;-8.668;2023-03-14T05:18:14;100556.50;;;1.98;100.00
64352;BME280;50680;52.626;-8.668;2023-03-14T05:20:41;100558.44;;;1.90;100.00
64352;BME280;50680;52.626;-8.668;2023-03-14T05:23:10;100576.53;;;1.90;100.00
64352;BME280;50680;52.626;-8.668;2023-03-14T05:25:36;100572.38;;;1.84;100.00
64352;BME280;50680;52.626;-8.668;2023-03-14T05:28:03;100578.53;;;1.80;100.00
64352;BME280;50680;52.626;-8.668;2023-03-14T05:30:30;100582.00;;;1.79;100.00
64352;BME280;50680;52.626;-8.668;2023-03-14T05:32:58;100579.56;;;1.73;100.00
64352;BME280;50680;52.626;-8.668;2023-03-14T05:35:25;100581.34;;;1.69;100.00
64352;BME280;50680;52.626;-8.668;2023-03-14T05:37:52;100585.81;;;1.64;100.00
64352;BME280;50680;52.626;-8.668;2023-03-14T05:40:19;100594.56;;;1.59;100.00
64352;BME280;50680;52.626;-8.668;2023-03-14T05:42:45;100606.84;;;1.49;100.00
64352;BME280;50680;52.626;-8.668;2023-03-14T05:45:12;100624.22;;;1.42;100.00
64352;BME280;50680;52.626;-8.668;2023-03-14T05:47:39;100621.75;;;1.38;100.00
64352;BME280;50680;52.626;-8.668;2023-03-14T05:50:06;100629.44;;;1.41;100.00
64352;BME280;50680;52.626;-8.668;2023-03-14T05:52:33;100632.00;;;1.41;100.00
64352;BME280;50680;52.626;-8.668;2023-03-14T05:55:00;100631.06;;;1.43;100.00
64352;BME280;50680;52.626;-8.668;2023-03-14T05:57:26;100646.41;;;1.51;100.00
64352;BME280;50680;52.626;-8.668;2023-03-14T05:59:53;100641.31;;;1.48;100.00
64352;BME280;50680;52.626;-8.668;2023-03-14T06:02:20;100649.94;;;1.47;100.00
64352;BME280;50680;52.626;-8.668;2023-03-14T06:04:47;100649.91;;;1.48;100.00
64352;BME280;50680;52.626;-8.668;2023-03-14T06:07:13;100654.44;;;1.40;100.00
64352;BME280;50680;52.626;-8.668;2023-03-14T06:09:40;100650.16;;;1.38;100.00
64352;BME280;50680;52.626;-8.668;2023-03-14T06:12:07;100662.25;;;1.36;100.00
64352;BME280;50680;52.626;-8.668;2023-03-14T06:14:34;100676.97;;;1.32;100.00
64352;BME280;50680;52.626;-8.668;2023-03-14T06:17:00;100694.94;;;1.37;100.00
64352;BME280;50680;52.626;-8.668;2023-03-14T06:19:27;100703.94;;;1.59;100.00
64352;BME280;50680;52.626;-8.668;2023-03-14T06:21:54;100713.34;;;1.62;100.00
64352;BME280;50680;52.626;-8.668;2023-03-14T06:24:21;100724.47;;;1.65;100.00
64352;BME280;50680;52.626;-8.668;2023-03-14T06:26:47;100727.06;;;1.65;100.00
64352;BME280;50680;52.626;-8.668;2023-03-14T06:29:14;100732.97;;;1.71;100.00
64352;BME280;50680;52.626;-8.668;2023-03-14T06:31:41;100718.31;;;1.71;100.00
64352;BME280;50680;52.626;-8.668;2023-03-14T06:34:08;100741.44;;;1.77;100.00
64352;BME280;50680;52.626;-8.668;2023-03-14T06:36:35;100742.94;;;1.87;100.00
64352;BME280;50680;52.626;-8.668;2023-03-14T06:39:01;100740.19;;;1.94;100.00
64352;BME280;50680;52.626;-8.668;2023-03-14T06:41:28;100734.06;;;1.99;100.00
64352;BME280;50680;52.626;-8.668;2023-03-14T06:43:55;100747.69;;;2.06;100.00
64352;BME280;50680;52.626;-8.668;2023-03-14T06:46:22;100752.69;;;2.12;100.00
64352;BME280;50680;52.626;-8.668;2023-03-14T06:48:49;100755.97;;;2.20;100.00
64352;BME280;50680;52.626;-8.668;2023-03-14T06:51:16;100766.94;;;2.30;100.00
64352;BME280;50680;52.626;-8.668;2023-03-14T06:53:43;100770.81;;;2.48;100.00
64352;BME280;50680;52.626;-8.668;2023-03-14T06:56:10;100769.66;;;2.60;100.00
64352;BME280;50680;52.626;-8.668;2023-03-14T06:58:37;100763.53;;;2.62;100.00
64352;BME280;50680;52.626;-8.668;2023-03-14T07:01:04;100771.16;;;2.69;100.00
64352;BME280;50680;52.626;-8.668;2023-03-14T07:03:31;100776.19;;;2.73;100.00
64352;BME280;50680;52.626;-8.668;2023-03-14T07:05:58;100783.78;;;2.81;100.00
64352;BME280;50680;52.626;-8.668;2023-03-14T07:08:25;100788.97;;;2.81;100.00
64352;BME280;50680;52.626;-8.668;2023-03-14T07:10:52;100795.91;;;2.79;100.00
64352;BME280;50680;52.626;-8.668;2023-03-14T07:13:19;100788.88;;;2.84;100.00
64352;BME280;50680;52.626;-8.668;2023-03-14T07:15:45;100797.38;;;2.89;100.00
64352;BME280;50680;52.626;-8.668;2023-03-14T07:18:12;100802.31;;;2.98;100.00
64352;BME280;50680;52.626;-8.668;2023-03-14T07:20:39;100798.66;;;3.06;100.00
64352;BME280;50680;52.626;-8.668;2023-03-14T07:23:06;100815.66;;;3.16;100.00
64352;BME280;50680;52.626;-8.668;2023-03-14T07:25:33;100818.91;;;3.24;100.00
64352;BME280;50680;52.626;-8.668;2023-03-14T07:28:00;100816.97;;;3.32;100.00
64352;BME280;50680;52.626;-8.668;2023-03-14T07:30:26;100817.72;;;3.36;100.00
64352;BME280;50680;52.626;-8.668;2023-03-14T07:32:53;100818.44;;;3.41;100.00
64352;BME280;50680;52.626;-8.668;2023-03-14T07:35:20;100827.97;;;3.39;100.00
64352;BME280;50680;52.626;-8.668;2023-03-14T07:37:47;100830.63;;;3.37;100.00
64352;BME280;50680;52.626;-8.668;2023-03-14T07:40:14;100831.47;;;3.38;100.00
64352;BME280;50680;52.626;-8.668;2023-03-14T07:42:42;100835.72;;;3.41;100.00
64352;BME280;50680;52.626;-8.668;2023-03-14T07:45:10;100845.97;;;3.45;100.00
64352;BME280;50680;52.626;-8.668;2023-03-14T07:47:38;100846.91;;;3.43;100.00
64352;BME280;50680;52.626;-8.668;2023-03-14T07:50:05;100852.78;;;3.48;100.00
64352;BME280;50680;52.626;-8.668;2023-03-14T07:52:32;100850.91;;;3.53;100.00
64352;BME280;50680;52.626;-8.668;2023-03-14T07:54:59;100855.03;;;3.62;100.00
64352;BME280;50680;52.626;-8.668;2023-03-14T07:57:26;100858.28;;;3.98;100.00
64352;BME280;50680;52.626;-8.668;2023-03-14T07:59:53;100857.72;;;4.71;100.00
64352;BME280;50680;52.626;-8.668;2023-03-14T08:02:20;100868.13;;;5.49;100.00
64352;BME280;50680;52.626;-8.668;2023-03-14T08:04:49;100869.38;;;6.31;100.00
64352;BME280;50680;52.626;-8.668;2023-03-14T08:07:16;100877.09;;;6.99;100.00
64352;BME280;50680;52.626;-8.668;2023-03-14T08:09:43;100880.59;;;7.60;100.00
64352;BME280;50680;52.626;-8.668;2023-03-14T08:12:10;100879.75;;;8.16;100.00
64352;BME280;50680;52.626;-8.668;2023-03-14T08:14:37;100875.41;;;8.72;100.00
64352;BME280;50680;52.626;-8.668;2023-03-14T08:17:03;100871.16;;;9.22;100.00
64352;BME280;50680;52.626;-8.668;2023-03-14T08:19:31;100890.00;;;9.79;100.00
64352;BME280;50680;52.626;-8.668;2023-03-14T08:21:58;100896.88;;;10.30;100.00
64352;BME280;50680;52.626;-8.668;2023-03-14T08:24:25;100898.97;;;10.71;100.00
64352;BME280;50680;52.626;-8.668;2023-03-14T08:26:52;100903.53;;;10.83;100.00
64352;BME280;50680;52.626;-8.668;2023-03-14T08:29:18;100907.19;;;10.65;100.00
64352;BME280;50680;52.626;-8.668;2023-03-14T08:31:45;100906.78;;;10.25;100.00
64352;BME280;50680;52.626;-8.668;2023-03-14T08:34:12;100916.88;;;9.99;100.00
64352;BME280;50680;52.626;-8.668;2023-03-14T08:36:39;100916.53;;;9.89;100.00
64352;BME280;50680;52.626;-8.668;2023-03-14T08:39:06;100915.09;;;9.84;100.00
64352;BME280;50680;52.626;-8.668;2023-03-14T08:41:35;100909.09;;;9.82;100.00
64352;BME280;50680;52.626;-8.668;2023-03-14T08:44:08;100916.72;;;9.69;100.00
64352;BME280;50680;52.626;-8.668;2023-03-14T08:46:35;100913.63;;;9.45;100.00
64352;BME280;50680;52.626;-8.668;2023-03-14T08:49:02;100920.03;;;9.21;100.00
64352;BME280;50680;52.626;-8.668;2023-03-14T08:51:29;100923.34;;;9.25;100.00
64352;BME280;50680;52.626;-8.668;2023-03-14T08:53:56;100926.78;;;9.60;100.00
64352;BME280;50680;52.626;-8.668;2023-03-14T08:56:22;100937.94;;;10.13;100.00
64352;BME280;50680;52.626;-8.668;2023-03-14T08:58:51;100940.94;;;10.55;100.00
64352;BME280;50680;52.626;-8.668;2023-03-14T09:01:18;100943.47;;;10.72;100.00
64352;BME280;50680;52.626;-8.668;2023-03-14T09:03:45;100943.84;;;10.50;100.00
64352;BME280;50680;52.626;-8.668;2023-03-14T09:06:14;100942.78;;;10.21;100.00
64352;BME280;50680;52.626;-8.668;2023-03-14T09:08:44;100959.41;;;9.71;100.00
64352;BME280;50680;52.626;-8.668;2023-03-14T09:11:12;100957.19;;;9.46;100.00
64352;BME280;50680;52.626;-8.668;2023-03-14T09:13:39;100961.13;;;9.19;100.00
64352;BME280;50680;52.626;-8.668;2023-03-14T09:16:07;100972.16;;;8.90;100.00
64352;BME280;50680;52.626;-8.668;2023-03-14T09:18:34;100991.72;;;8.63;100.00
64352;BME280;50680;52.626;-8.668;2023-03-14T09:21:01;100995.16;;;8.45;100.00
64352;BME280;50680;52.626;-8.668;2023-03-14T09:23:28;101010.38;;;7.96;100.00
64352;BME280;50680;52.626;-8.668;2023-03-14T09:25:56;101018.03;;;7.59;100.00
64352;BME280;50680;52.626;-8.668;2023-03-14T09:28:23;101025.88;;;7.17;100.00
64352;BME280;50680;52.626;-8.668;2023-03-14T09:30:50;101015.25;;;6.77;100.00
64352;BME280;50680;52.626;-8.668;2023-03-14T09:33:17;101018.13;;;6.47;100.00
64352;BME280;50680;52.626;-8.668;2023-03-14T09:35:44;101004.25;;;6.23;100.00
64352;BME280;50680;52.626;-8.668;2023-03-14T09:38:11;101011.47;;;6.15;100.00
64352;BME280;50680;52.626;-8.668;2023-03-14T09:40:38;101003.66;;;6.15;100.00
64352;BME280;50680;52.626;-8.668;2023-03-14T09:43:05;101001.81;;;6.18;100.00
64352;BME280;50680;52.626;-8.668;2023-03-14T09:45:37;100998.75;;;6.31;100.00
64352;BME280;50680;52.626;-8.668;2023-03-14T09:48:14;101003.03;;;6.55;100.00
64352;BME280;50680;52.626;-8.668;2023-03-14T09:50:45;101003.59;;;6.64;100.00
64352;BME280;50680;52.626;-8.668;2023-03-14T09:53:14;101007.06;;;6.86;100.00
64352;BME280;50680;52.626;-8.668;2023-03-14T09:55:45;101017.06;;;6.97;100.00
64352;BME280;50680;52.626;-8.668;2023-03-14T09:58:16;101016.63;;;7.30;100.00
64352;BME280;50680;52.626;-8.668;2023-03-14T10:00:44;101004.38;;;7.73;100.00
64352;BME280;50680;52.626;-8.668;2023-03-14T10:05:39;101016.97;;;8.44;100.00
64352;BME280;50680;52.626;-8.668;2023-03-14T10:08:10;101023.78;;;8.67;100.00
64352;BME280;50680;52.626;-8.668;2023-03-14T10:10:37;101019.56;;;9.01;100.00
64352;BME280;50680;52.626;-8.668;2023-03-14T10:13:15;101018.75;;;9.35;100.00
64352;BME280;50680;52.626;-8.668;2023-03-14T10:16:09;101018.53;;;9.75;100.00
64352;BME280;50680;52.626;-8.668;2023-03-14T10:18:36;101011.19;;;9.99;100.00
64352;BME280;50680;52.626;-8.668;2023-03-14T10:23:37;101019.88;;;10.50;100.00
64352;BME280;50680;52.626;-8.668;2023-03-14T10:26:13;101021.16;;;10.75;100.00
64352;BME280;50680;52.626;-8.668;2023-03-14T10:31:11;101011.47;;;10.91;100.00
64352;BME280;50680;52.626;-8.668;2023-03-14T10:33:39;101016.72;;;10.91;100.00
64352;BME280;50680;52.626;-8.668;2023-03-14T10:36:20;101012.75;;;10.84;100.00
64352;BME280;50680;52.626;-8.668;2023-03-14T10:38:47;101017.09;;;10.85;100.00
64352;BME280;50680;52.626;-8.668;2023-03-14T10:41:27;101027.31;;;11.06;100.00
64352;BME280;50680;52.626;-8.668;2023-03-14T10:43:59;101027.59;;;11.32;100.00
64352;BME280;50680;52.626;-8.668;2023-03-14T10:46:30;101026.97;;;11.42;100.00
64352;BME280;50680;52.626;-8.668;2023-03-14T10:48:57;101029.59;;;11.42;100.00
64352;BME280;50680;52.626;-8.668;2023-03-14T10:51:29;101028.88;;;11.24;100.00
64352;BME280;50680;52.626;-8.668;2023-03-14T10:54:12;101017.50;;;11.40;100.00
64352;BME280;50680;52.626;-8.668;2023-03-14T10:56:39;101018.66;;;11.50;100.00
64352;BME280;50680;52.626;-8.668;2023-03-14T10:59:15;101022.44;;;11.60;100.00
64352;BME280;50680;52.626;-8.668;2023-03-14T11:07:42;101024.75;;;11.95;100.00
64352;BME280;50680;52.626;-8.668;2023-03-14T11:10:26;101025.06;;;11.91;100.00
64352;BME280;50680;52.626;-8.668;2023-03-14T11:13:31;101027.97;;;12.00;100.00
64352;BME280;50680;52.626;-8.668;2023-03-14T11:22:17;101022.97;;;12.95;100.00
64352;BME280;50680;52.626;-8.668;2023-03-14T11:27:59;101028.09;;;13.11;100.00
64352;BME280;50680;52.626;-8.668;2023-03-14T11:36:09;101009.66;;;12.84;100.00
64352;BME280;50680;52.626;-8.668;2023-03-14T11:38:46;101017.13;;;12.77;100.00
64352;BME280;50680;52.626;-8.668;2023-03-14T11:41:25;101020.41;;;12.81;100.00
64352;BME280;50680;52.626;-8.668;2023-03-14T11:43:57;101027.88;;;12.87;100.00
64352;BME280;50680;52.626;-8.668;2023-03-14T11:46:41;101035.28;;;12.67;100.00
64352;BME280;50680;52.626;-8.668;2023-03-14T11:51:47;101019.50;;;11.95;100.00
64352;BME280;50680;52.626;-8.668;2023-03-14T11:54:34;101022.09;;;11.81;100.00
64352;BME280;50680;52.626;-8.668;2023-03-14T11:57:10;101006.25;;;11.82;100.00
64352;BME280;50680;52.626;-8.668;2023-03-14T11:59:55;101006.66;;;11.91;100.00
64352;BME280;50680;52.626;-8.668;2023-03-14T12:05:33;101001.88;;;12.12;100.00
64352;BME280;50680;52.626;-8.668;2023-03-14T12:10:48;100993.06;;;12.27;100.00
64352;BME280;50680;52.626;-8.668;2023-03-14T12:13:17;101001.47;;;12.47;100.00
64352;BME280;50680;52.626;-8.668;2023-03-14T12:15:58;101002.53;;;12.30;100.00
64352;BME280;50680;52.626;-8.668;2023-03-14T12:18:37;100999.91;;;12.01;100.00
64352;BME280;50680;52.626;-8.668;2023-03-14T12:21:12;100998.88;;;12.18;100.00
64352;BME280;50680;52.626;-8.668;2023-03-14T12:23:55;100995.66;;;12.13;100.00
64352;BME280;50680;52.626;-8.668;2023-03-14T12:26:28;100996.78;;;12.23;100.00
64352;BME280;50680;52.626;-8.668;2023-03-14T12:29:16;100989.34;;;11.86;100.00
64352;BME280;50680;52.626;-8.668;2023-03-14T12:31:46;101016.50;;;11.87;100.00
64352;BME280;50680;52.626;-8.668;2023-03-14T12:42:20;101069.34;;;8.41;100.00
64352;BME280;50680;52.626;-8.668;2023-03-14T12:45:22;101079.69;;;8.44;100.00
64352;BME280;50680;52.626;-8.668;2023-03-14T12:50:25;101077.03;;;8.83;100.00
64352;BME280;50680;52.626;-8.668;2023-03-14T12:55:36;101089.63;;;9.67;100.00
64352;BME280;50680;52.626;-8.668;2023-03-14T12:58:35;101079.56;;;10.10;100.00
64352;BME280;50680;52.626;-8.668;2023-03-14T13:01:06;101091.50;;;10.67;100.00
64352;BME280;50680;52.626;-8.668;2023-03-14T13:06:13;101078.63;;;10.62;100.00
64352;BME280;50680;52.626;-8.668;2023-03-14T13:12:14;101076.91;;;10.95;100.00
64352;BME280;50680;52.626;-8.668;2023-03-14T13:14:45;101077.75;;;11.11;100.00
64352;BME280;50680;52.626;-8.668;2023-03-14T13:17:14;101074.50;;;11.38;100.00
64352;BME280;50680;52.626;-8.668;2023-03-14T13:20:13;101074.31;;;11.41;100.00
64352;BME280;50680;52.626;-8.668;2023-03-14T13:22:47;101063.94;;;11.23;100.00
64352;BME280;50680;52.626;-8.668;2023-03-14T13:25:14;101068.31;;;11.39;100.00
64352;BME280;50680;52.626;-8.668;2023-03-14T13:27:43;101069.03;;;11.57;100.00
64352;BME280;50680;52.626;-8.668;2023-03-14T13:30:28;101056.28;;;11.35;100.00
64352;BME280;50680;52.626;-8.668;2023-03-14T13:32:56;101048.25;;;11.38;100.00
64352;BME280;50680;52.626;-8.668;2023-03-14T13:35:28;101058.16;;;11.33;100.00
64352;BME280;50680;52.626;-8.668;2023-03-14T13:38:00;101064.13;;;11.04;100.00
64352;BME280;50680;52.626;-8.668;2023-03-14T13:40:44;101056.59;;;10.82;100.00
64352;BME280;50680;52.626;-8.668;2023-03-14T13:46:22;101074.59;;;10.72;100.00
64352;BME280;50680;52.626;-8.668;2023-03-14T13:48:48;101063.34;;;10.54;100.00
64352;BME280;50680;52.626;-8.668;2023-03-14T13:51:18;101062.66;;;10.67;100.00
64352;BME280;50680;52.626;-8.668;2023-03-14T13:53:47;101065.13;;;10.70;100.00